Flight Track Log - Related Links

Times and Time Zones

All times are in EDT time to prevent confusion due to time zone crossing. See the AWE1640 flight status page for this flight to view local times or setup timezone preferences in your user account.

Time Position Orientation Groundspeed Altitude Reporting Facility
EDT Latitude Longitude Course Direction KTS MPH feet Rate Location/Type
Tue 06:16:57 AM 33.6475 -84.4706 101° East 434 499 2,800  Level Atlanta Center
Tue 06:17:57 AM 33.6514 -84.5428 274° West 321 369 4,200 1,800 Climbing Atlanta Center
Tue 06:18:57 AM 33.6992 -84.5881 322° Northwest 224 258 6,400 2,450 Climbing Atlanta Center
Tue 06:19:57 AM 33.7742 -84.5911 358° North 280 322 9,100 2,500 Climbing Atlanta Center
Tue 06:20:57 AM 33.8203 -84.5339 46° Northeast 260 299 11,400 1,550 Climbing Atlanta Center
Tue 06:21:57 AM 33.8167 -84.4264 92° East 266 306 12,200 1,300 Climbing Atlanta Center
Tue 06:22:00 AM 33.6786 -83.8043 101° East  Level FlightAware Approximate
Tue 06:22:57 AM 33.7939 -84.3039 103° East 345 397 14,000  Level Atlanta Center
Tue 06:23:57 AM 33.7692 -84.1761 103° East 376 433 16,000 2,150 Climbing Atlanta Center
Tue 06:24:57 AM 33.7442 -84.0489 103° East 390 449 18,300 2,000 Climbing Atlanta Center
Tue 06:25:57 AM 33.7169 -83.9164 104° East 396 456 20,000 1,550 Climbing Atlanta Center
Tue 06:26:57 AM 33.6939 -83.7967 103° East 401 461 21,400 1,450 Climbing Atlanta Center
Tue 06:27:57 AM 33.6683 -83.6594 103° East 410 472 22,900 1,500 Climbing Atlanta Center
Tue 06:28:57 AM 33.7033 -83.5294 72° East 403 464 24,400 1,350 Climbing Atlanta Center
Tue 06:29:57 AM 33.7572 -83.4042 63° Northeast 403 464 25,600 1,050 Climbing Atlanta Center
Tue 06:30:57 AM 33.8086 -83.2764 64° Northeast 414 476 26,500 700 Climbing Atlanta Center
Tue 06:31:57 AM 33.8725 -83.1431 60° Northeast 442 509 27,000 250 Climbing Atlanta Center
Tue 06:32:57 AM 33.9444 -83.0122 56° Northeast 461 531 27,000 -50 Level Atlanta Center
Tue 06:33:57 AM 34.0164 -82.8833 56° Northeast 467 537 26,900 -500 Descending Atlanta Center
Tue 06:34:57 AM 34.0964 -82.7419 56° Northeast 461 531 26,000 -950 Descending Atlanta Center
Tue 06:35:57 AM 34.1636 -82.6128 58° Northeast 461 531 25,000 -950 Descending Atlanta Center
Tue 06:36:57 AM 34.2250 -82.4936 58° Northeast 461 531 24,100 -500 Descending Atlanta Center
Tue 06:37:57 AM 34.2964 -82.3667 56° Northeast 461 531 24,000 -200 Descending Atlanta Center
Tue 06:38:57 AM 34.3675 -82.2319 57° Northeast 461 531 23,700 -1,600 Descending Atlanta Center
Tue 06:39:57 AM 34.4364 -82.1044 57° Northeast 461 531 20,800 -5,850 Descending Atlanta Center
Tue 06:40:57 AM 34.5011 -81.9794 58° Northeast 454 522 12,000 -2,800 Descending Atlanta Center
Tue 06:41:57 AM 34.5658 -81.8542 58° Northeast 447 514 15,200 250 Climbing Atlanta Center
Tue 06:42:57 AM 34.6283 -81.7392 57° Northeast 420 483 12,500 -2,385 Descending Atlanta Center
Tue 06:43:15 AM 34.6506 -81.6956 58° Northeast 406 467 12,100 -625 Descending Atlanta Center
Tue 06:43:45 AM 34.6850 -81.6364 55° Northeast 403 464 12,000 -66 Descending Atlanta Center
Tue 06:44:46 AM 34.7475 -81.5286 55° Northeast 402 463 12,000  Level Atlanta Center
Tue 06:45:47 AM 34.8267 -81.4275 46° Northeast 403 464 12,000 -313 Level Atlanta Center
Tue 06:46:41 AM 34.8978 -81.3342 47° Northeast 406 467 11,400 -771 Descending Atlanta Center
Tue 06:46:57 AM 34.9097 -81.3186 47° Northeast 393 452 11,100 -1,279 Descending Atlanta Center
Tue 06:47:42 AM 34.9728 -81.2353 47° Northeast 399 459 10,100 -1,100 Descending Atlanta Center
Tue 06:47:57 AM 34.9847 -81.2197 47° Northeast 393 452 10,000  Descending Atlanta Center
Tue 06:48:43 AM 35.0456 -81.1414 46° Northeast 391 450 10,100 50 Climbing Atlanta Center
Tue 06:49:56 AM 35.1481 -81.0642 32° Northeast 326 375 10,100 -632 Level Atlanta Center
Tue 06:50:56 AM 35.2317 -81.0739 355° North 278 320 8,700 -1,686 Descending Atlanta Center
Tue 06:51:57 AM 35.3092 -81.0814 355° North 279 321 6,700 -2,132 Descending Atlanta Center
Tue 06:52:57 AM 35.3803 -81.0839 358° North 278 320 4,400 -1,409 Descending Atlanta Center
Tue 06:53:52 AM 35.4164 -81.0239 54° Northeast 232 267 4,000 -436 Descending Atlanta Center

Login

Don't have an account? Register now (free) for customized features, flight alerts, and more!